createdAt,value
2022-10-06T00:00:56.464Z,101364.72
2022-10-06T00:03:24.832Z,101352.34
2022-10-06T00:05:53.042Z,101357.66
2022-10-06T00:08:21.302Z,101351.25
2022-10-06T00:10:50.837Z,101356.25
2022-10-06T00:13:19.080Z,101356.13
2022-10-06T00:15:47.484Z,101363.31
2022-10-06T00:18:15.797Z,101364.13
2022-10-06T00:20:44.098Z,101363.31
2022-10-06T00:23:13.060Z,101367.66
2022-10-06T00:25:41.268Z,101357.97
2022-10-06T00:28:11.318Z,101370.31
2022-10-06T00:30:40.560Z,101362.31
2022-10-06T00:33:08.959Z,101356.97
2022-10-06T00:35:37.173Z,101348.97
2022-10-06T00:38:05.880Z,101347.31
2022-10-06T00:40:34.602Z,101354.31
2022-10-06T00:43:04.701Z,101348.97
2022-10-06T00:45:39.209Z,101354.31
2022-10-06T00:48:14.159Z,101348.97
2022-10-06T00:50:42.733Z,101359.66
2022-10-06T00:53:13.513Z,101353.47
2022-10-06T00:55:41.973Z,101353.31
2022-10-06T00:58:11.396Z,101358.66
2022-10-06T01:00:44.393Z,101367.50
2022-10-06T01:03:17.939Z,101356.84
2022-10-06T01:05:50.864Z,101362.16
2022-10-06T01:08:19.839Z,101359.66
2022-10-06T01:10:48.067Z,101355.84
2022-10-06T01:13:17.661Z,101364.84
2022-10-06T01:15:53.755Z,101356.84
2022-10-06T01:18:27.388Z,101367.50
2022-10-06T01:21:08.382Z,101374.50
2022-10-06T01:23:38.170Z,101368.38
2022-10-06T01:26:09.878Z,101369.19
2022-10-06T01:28:38.796Z,101378.03
2022-10-06T01:31:09.116Z,101379.03
2022-10-06T01:33:37.498Z,101386.03
2022-10-06T01:36:06.000Z,101370.16
2022-10-06T01:38:34.327Z,101369.19
2022-10-06T01:41:06.771Z,101363.03
2022-10-06T01:43:36.497Z,101358.66
2022-10-06T01:46:06.839Z,101356.84
2022-10-06T01:48:36.811Z,101361.31
2022-10-06T01:51:05.495Z,101354.31
2022-10-06T01:53:33.900Z,101362.16
2022-10-06T01:56:02.201Z,101356.00
2022-10-06T01:58:33.414Z,101358.66
2022-10-06T02:01:07.271Z,101350.66
2022-10-06T02:03:37.600Z,101352.38
2022-10-06T02:06:06.559Z,101341.69
2022-10-06T02:08:36.554Z,101340.84
2022-10-06T02:11:09.247Z,101339.03
2022-10-06T02:13:43.524Z,101332.72
2022-10-06T02:16:14.166Z,101337.47
2022-10-06T02:18:44.134Z,101332.72
2022-10-06T02:21:16.694Z,101337.47
2022-10-06T02:23:45.374Z,101332.13
2022-10-06T02:26:14.430Z,101330.44
2022-10-06T02:28:44.965Z,101342.09
2022-10-06T02:31:15.832Z,101328.75
2022-10-06T02:33:45.455Z,101326.22
2022-10-06T02:36:15.767Z,101325.25
2022-10-06T02:38:45.653Z,101327.06
2022-10-06T02:41:13.951Z,101327.06
2022-10-06T02:43:43.730Z,101336.88
2022-10-06T02:46:13.460Z,101330.72
2022-10-06T02:48:47.683Z,101338.69
2022-10-06T02:51:18.365Z,101336.03
2022-10-06T02:53:48.817Z,101350.34
2022-10-06T02:56:20.586Z,101342.34
2022-10-06T02:58:51.462Z,101342.22
2022-10-06T03:01:40.593Z,101356.50
2022-10-06T03:04:13.674Z,101361.84
2022-10-06T03:06:43.675Z,101362.56
2022-10-06T03:09:20.773Z,101363.69
2022-10-06T03:11:49.576Z,101366.63
2022-10-06T03:14:39.475Z,101378.97
2022-10-06T03:17:10.030Z,101377.28
2022-10-06T03:19:45.625Z,101389.91
2022-10-06T03:22:14.191Z,101389.63
2022-10-06T03:24:51.591Z,101385.69
2022-10-06T03:27:20.069Z,101381.22
2022-10-06T03:29:51.790Z,101380.13
2022-10-06T03:32:24.203Z,101389.34
2022-10-06T03:34:54.400Z,101395.28
2022-10-06T03:37:22.970Z,101387.91
2022-10-06T03:39:52.109Z,101396.75
2022-10-06T03:42:20.893Z,101392.44
2022-10-06T03:44:50.908Z,101396.56
2022-10-06T03:47:19.322Z,101391.31
2022-10-06T03:49:48.345Z,101393.78
2022-10-06T03:52:22.340Z,101392.84
2022-10-06T03:54:54.123Z,101403.72
2022-10-06T03:57:23.087Z,101402.03
2022-10-06T03:59:53.431Z,101397.53
2022-10-06T04:02:21.752Z,101394.84
2022-10-06T04:04:49.996Z,101393.66
2022-10-06T04:07:19.095Z,101392.88
2022-10-06T04:09:47.807Z,101384.13
2022-10-06T04:12:17.687Z,101390.16
2022-10-06T04:14:46.006Z,101384.84
2022-10-06T04:17:16.630Z,101388.91
2022-10-06T04:19:45.136Z,101391.31
2022-10-06T04:22:14.713Z,101391.03
2022-10-06T04:24:43.703Z,101394.41
2022-10-06T04:27:30.092Z,101389.09
2022-10-06T04:30:18.763Z,101384.22
2022-10-06T04:32:48.935Z,101394.06
2022-10-06T04:35:17.860Z,101390.53
2022-10-06T04:37:46.701Z,101385.09
2022-10-06T04:40:15.373Z,101386.06
2022-10-06T04:42:43.635Z,101393.06
2022-10-06T04:45:15.806Z,101390.53
2022-10-06T04:47:44.863Z,101393.06
2022-10-06T04:50:14.988Z,101395.59
2022-10-06T04:53:03.324Z,101394.75
2022-10-06T04:55:31.786Z,101399.81
2022-10-06T04:58:00.553Z,101404.09
2022-10-06T05:00:28.986Z,101402.44
2022-10-06T05:02:58.839Z,101401.03
2022-10-06T05:05:28.804Z,101398.94
2022-10-06T05:07:57.956Z,101401.34
2022-10-06T05:10:28.651Z,101404.72
2022-10-06T05:12:57.894Z,101396.59
2022-10-06T05:15:29.294Z,101415.09
2022-10-06T05:17:57.566Z,101414.97
2022-10-06T05:20:25.917Z,101414.97
2022-10-06T05:22:56.084Z,101416.91
2022-10-06T05:25:25.040Z,101411.59
2022-10-06T05:27:53.247Z,101411.72
2022-10-06T05:30:21.828Z,101410.88
2022-10-06T05:32:50.663Z,101410.88
2022-10-06T05:35:19.956Z,101408.78
2022-10-06T05:37:48.199Z,101401.34
2022-10-06T05:40:18.541Z,101403.88
2022-10-06T05:42:46.753Z,101404.72
2022-10-06T05:45:15.222Z,101396.59
2022-10-06T05:47:43.585Z,101398.28
2022-10-06T05:50:11.853Z,101404.19
2022-10-06T05:52:40.553Z,101398.00
2022-10-06T05:55:10.410Z,101403.06
2022-10-06T05:57:40.306Z,101396.75
2022-10-06T06:00:09.859Z,101402.81
2022-10-06T06:02:41.510Z,101404.63
2022-10-06T06:05:12.095Z,101414.44
2022-10-06T06:07:41.240Z,101410.06
2022-10-06T06:10:10.626Z,101412.59
2022-10-06T06:12:40.482Z,101413.47
2022-10-06T06:15:33.629Z,101417.94
2022-10-06T06:18:06.234Z,101407.28
2022-10-06T06:20:34.831Z,101415.28
2022-10-06T06:23:03.237Z,101415.13
2022-10-06T06:25:32.213Z,101423.13
2022-10-06T06:28:01.939Z,101420.47
2022-10-06T06:30:30.946Z,101407.88
2022-10-06T06:33:00.476Z,101418.53
2022-10-06T06:35:29.688Z,101417.53
2022-10-06T06:37:59.535Z,101425.41
2022-10-06T06:40:29.016Z,101423.41
2022-10-06T06:42:57.642Z,101430.47
2022-10-06T06:45:41.625Z,101416.28
2022-10-06T06:48:20.586Z,101423.28
2022-10-06T06:50:58.560Z,101418.81
2022-10-06T06:53:28.555Z,101415.16
2022-10-06T06:55:59.338Z,101416.00
2022-10-06T06:58:28.466Z,101414.06
2022-10-06T07:01:06.267Z,101419.38
2022-10-06T07:03:56.161Z,101426.41
2022-10-06T07:06:28.186Z,101413.06
2022-10-06T07:08:58.541Z,101419.13
2022-10-06T07:11:29.071Z,101419.97
2022-10-06T07:14:01.355Z,101412.81
2022-10-06T07:16:49.615Z,101415.50
2022-10-06T07:19:37.122Z,101412.81
2022-10-06T07:22:32.666Z,101419.84
2022-10-06T07:25:11.643Z,101425.03
2022-10-06T07:27:51.218Z,101419.56
2022-10-06T07:30:41.181Z,101416.19
2022-10-06T07:33:16.320Z,101418.16
2022-10-06T07:37:49.199Z,101410.66
2022-10-06T07:40:18.814Z,101421.34
2022-10-06T07:42:52.171Z,101410.66
2022-10-06T07:45:42.535Z,101413.34
2022-10-06T07:48:33.549Z,101416.13
2022-10-06T07:51:07.421Z,101417.13
2022-10-06T07:53:40.155Z,101414.59
2022-10-06T07:56:27.089Z,101411.22
2022-10-06T07:58:58.885Z,101411.22
2022-10-06T08:01:30.045Z,101411.22
2022-10-06T08:03:58.723Z,101408.69
2022-10-06T08:06:27.324Z,101415.84
2022-10-06T08:08:56.995Z,101406.16
2022-10-06T08:11:25.467Z,101401.81
2022-10-06T08:13:53.912Z,101397.34
2022-10-06T08:16:26.603Z,101403.63
2022-10-06T08:18:56.107Z,101391.16
2022-10-06T08:21:25.482Z,101395.50
2022-10-06T08:23:57.840Z,101395.50
2022-10-06T08:26:28.326Z,101392.69
2022-10-06T08:29:03.347Z,101389.22
2022-10-06T08:31:33.508Z,101390.88
2022-10-06T08:34:02.189Z,101390.16
2022-10-06T08:36:32.405Z,101383.16
2022-10-06T08:39:02.589Z,101378.69
2022-10-06T08:41:40.233Z,101386.81
2022-10-06T08:44:21.591Z,101382.31
2022-10-06T08:46:57.020Z,101379.81
2022-10-06T08:49:28.221Z,101391.28
2022-10-06T08:52:03.889Z,101382.88
2022-10-06T08:54:40.254Z,101383.75
2022-10-06T08:57:17.530Z,101388.06
2022-10-06T08:59:48.048Z,101389.63
2022-10-06T09:02:30.239Z,101392.16
2022-10-06T09:05:02.759Z,101386.81
2022-10-06T09:07:40.674Z,101384.00
2022-10-06T09:10:32.093Z,101391.88
2022-10-06T09:13:07.009Z,101386.53
2022-10-06T09:15:40.484Z,101388.84
2022-10-06T09:18:16.157Z,101386.03
2022-10-06T09:20:51.231Z,101374.38
2022-10-06T09:23:41.146Z,101377.91
2022-10-06T09:26:13.801Z,101377.03
2022-10-06T09:28:46.849Z,101371.00
2022-10-06T09:31:23.262Z,101373.94
2022-10-06T09:33:55.249Z,101380.13
2022-10-06T09:36:24.301Z,101376.75
2022-10-06T09:38:55.611Z,101368.03
2022-10-06T09:41:28.213Z,101366.34
2022-10-06T09:43:59.984Z,101366.34
2022-10-06T09:46:32.306Z,101375.31
2022-10-06T09:49:18.727Z,101363.81
2022-10-06T09:52:05.098Z,101373.63
2022-10-06T09:54:35.043Z,101364.63
2022-10-06T09:57:15.528Z,101363.81
2022-10-06T09:59:46.371Z,101368.28
2022-10-06T10:02:36.928Z,101355.69
2022-10-06T10:05:08.398Z,101353.47
2022-10-06T10:07:37.605Z,101348.84
2022-10-06T10:10:20.868Z,101353.19
2022-10-06T10:12:54.941Z,101340.84
2022-10-06T10:15:31.499Z,101349.81
2022-10-06T10:18:03.259Z,101339.16
2022-10-06T10:20:38.119Z,101343.53
2022-10-06T10:23:20.688Z,101344.47
2022-10-06T10:26:03.159Z,101335.75
2022-10-06T10:28:51.785Z,101332.13
2022-10-06T10:31:31.586Z,101328.47
2022-10-06T10:34:24.863Z,101333.09
2022-10-06T10:36:57.677Z,101326.81
2022-10-06T10:39:34.971Z,101326.81
2022-10-06T10:42:07.652Z,101324.00
2022-10-06T10:44:44.629Z,101331.72
2022-10-06T10:47:20.643Z,101322.88
2022-10-06T10:49:54.989Z,101319.13
2022-10-06T10:52:28.133Z,101321.78
2022-10-06T10:55:05.230Z,101322.59
2022-10-06T10:57:38.948Z,101321.78
2022-10-06T11:00:17.118Z,101324.59
2022-10-06T11:02:45.854Z,101323.59
2022-10-06T11:05:18.247Z,101323.72
2022-10-06T11:07:54.939Z,101319.53
2022-10-06T11:10:27.222Z,101315.00
2022-10-06T11:13:11.629Z,101314.19
2022-10-06T11:16:08.129Z,101315.00
2022-10-06T11:18:48.852Z,101307.88
2022-10-06T11:21:21.855Z,101311.38
2022-10-06T11:23:58.761Z,101308.59
2022-10-06T11:26:41.148Z,101308.59
2022-10-06T11:29:22.089Z,101299.72
2022-10-06T11:32:00.930Z,101294.53
2022-10-06T11:34:29.680Z,101294.53
2022-10-06T11:37:06.415Z,101298.19
2022-10-06T11:39:49.341Z,101298.19
2022-10-06T11:42:23.564Z,101285.84
2022-10-06T11:44:59.440Z,101296.50
2022-10-06T11:47:35.458Z,101290.19
2022-10-06T11:50:34.879Z,101284.16
2022-10-06T11:53:03.583Z,101291.16
2022-10-06T11:55:32.055Z,101288.63
2022-10-06T11:58:37.878Z,101287.53
2022-10-06T12:01:03.813Z,101284.72
2022-10-06T12:04:13.340Z,101290.06
2022-10-06T12:06:57.825Z,101284.72
2022-10-06T12:09:52.007Z,101291.88
2022-10-06T12:13:31.771Z,101290.19
2022-10-06T12:17:09.326Z,101290.19
2022-10-06T12:19:21.487Z,101281.50
2022-10-06T12:22:00.788Z,101283.16
2022-10-06T12:24:41.542Z,101284.16
2022-10-06T12:27:48.745Z,101290.34
2022-10-06T12:30:23.723Z,101289.50
2022-10-06T12:32:54.565Z,101288.63
2022-10-06T12:35:31.830Z,101284.16
2022-10-06T12:38:04.943Z,101283.31
2022-10-06T12:40:55.707Z,101282.44
2022-10-06T12:43:32.522Z,101278.53
2022-10-06T12:46:05.492Z,101276.59
2022-10-06T12:48:42.849Z,101278.28
2022-10-06T12:51:23.703Z,101276.59
2022-10-06T12:54:00.596Z,101272.94
2022-10-06T12:56:31.734Z,101273.94
2022-10-06T12:59:00.151Z,101278.41
2022-10-06T13:01:29.281Z,101279.41
2022-10-06T13:03:57.677Z,101279.53
2022-10-06T13:06:27.563Z,101283.88
2022-10-06T13:09:15.090Z,101283.88
2022-10-06T13:11:43.471Z,101278.28
2022-10-06T13:14:15.170Z,101285.28
2022-10-06T13:16:46.586Z,101272.78
2022-10-06T13:19:18.706Z,101278.00
2022-10-06T13:21:48.980Z,101270.66
2022-10-06T13:24:27.876Z,101268.84
2022-10-06T13:26:56.710Z,101267.19
2022-10-06T13:29:26.520Z,101273.06
2022-10-06T13:31:56.380Z,101265.06
2022-10-06T13:34:30.321Z,101263.25
2022-10-06T13:37:01.669Z,101273.06
2022-10-06T13:39:32.102Z,101271.53
2022-10-06T13:42:04.776Z,101274.34
2022-10-06T13:44:38.055Z,101268.16
2022-10-06T13:47:15.972Z,101262.94
2022-10-06T13:49:49.149Z,101258.63
2022-10-06T13:52:23.579Z,101254.97
2022-10-06T13:54:53.824Z,101248.94
2022-10-06T13:57:38.338Z,101260.28
2022-10-06T14:00:16.515Z,101257.78
2022-10-06T14:02:46.505Z,101252.47
2022-10-06T14:05:32.852Z,101258.63
2022-10-06T14:08:05.184Z,101258.63
2022-10-06T14:10:46.098Z,101251.59
2022-10-06T14:13:19.270Z,101256.94
2022-10-06T14:15:49.616Z,101257.63
2022-10-06T14:18:23.447Z,101252.28
2022-10-06T14:20:53.439Z,101253.00
2022-10-06T14:23:51.252Z,101260.00
2022-10-06T14:26:21.163Z,101248.38
2022-10-06T14:28:53.332Z,101252.72
2022-10-06T14:31:22.163Z,101243.72
2022-10-06T14:33:52.842Z,101250.06
2022-10-06T14:36:23.900Z,101249.34
2022-10-06T14:38:56.320Z,101249.47
2022-10-06T14:41:27.886Z,101252.16
2022-10-06T14:43:57.154Z,101254.28
2022-10-06T14:46:26.529Z,101260.75
2022-10-06T14:48:54.768Z,101255.53
2022-10-06T14:51:24.750Z,101258.34
2022-10-06T14:53:54.818Z,101258.47
2022-10-06T14:56:24.501Z,101254.13
2022-10-06T14:58:53.978Z,101264.06
2022-10-06T15:01:24.671Z,101261.41
2022-10-06T15:03:53.495Z,101257.06
2022-10-06T15:06:39.619Z,101263.34
2022-10-06T15:09:09.851Z,101261.53
2022-10-06T15:11:38.955Z,101271.34
2022-10-06T15:14:08.749Z,101274.00
2022-10-06T15:16:42.432Z,101274.00
2022-10-06T15:19:11.705Z,101273.19
2022-10-06T15:21:40.982Z,101276.69
2022-10-06T15:24:14.122Z,101275.00
2022-10-06T15:27:00.448Z,101288.34
2022-10-06T15:29:29.387Z,101277.66
2022-10-06T15:31:58.894Z,101280.34
2022-10-06T15:34:28.759Z,101279.50
2022-10-06T15:36:58.117Z,101285.53
2022-10-06T15:39:30.127Z,101286.50
2022-10-06T15:41:58.642Z,101289.84
2022-10-06T15:44:27.288Z,101290.38
2022-10-06T15:46:56.970Z,101291.09
2022-10-06T15:49:26.642Z,101290.56
2022-10-06T15:51:57.127Z,101294.19
2022-10-06T15:54:28.469Z,101288.16
2022-10-06T15:56:58.394Z,101290.28
2022-10-06T15:59:27.849Z,101297.84
2022-10-06T16:01:57.872Z,101291.38
2022-10-06T16:04:34.654Z,101294.19
2022-10-06T16:07:03.733Z,101298.28
2022-10-06T16:09:38.183Z,101301.75
2022-10-06T16:12:12.152Z,101306.69
2022-10-06T16:14:40.787Z,101298.97
2022-10-06T16:17:09.708Z,101306.94
2022-10-06T16:19:38.583Z,101301.75
2022-10-06T16:22:08.475Z,101297.41
2022-10-06T16:24:38.260Z,101302.88
2022-10-06T16:27:06.906Z,101304.69
2022-10-06T16:29:35.206Z,101304.97
2022-10-06T16:32:03.868Z,101304.28
2022-10-06T16:34:32.587Z,101302.56
2022-10-06T16:37:00.810Z,101314.19
2022-10-06T16:39:29.057Z,101307.06
2022-10-06T16:41:58.649Z,101315.19
2022-10-06T16:44:26.946Z,101319.66
2022-10-06T16:46:55.244Z,101309.28
2022-10-06T16:49:24.674Z,101308.47
2022-10-06T16:51:52.666Z,101311.81
2022-10-06T16:54:21.013Z,101312.94
2022-10-06T16:56:52.218Z,101306.50
2022-10-06T16:59:23.014Z,101316.75
2022-10-06T17:01:52.022Z,101316.75
2022-10-06T17:04:22.093Z,101307.63
2022-10-06T17:06:51.971Z,101313.81
2022-10-06T17:09:22.255Z,101320.00
2022-10-06T17:11:51.913Z,101314.53
2022-10-06T17:14:22.466Z,101310.16
2022-10-06T17:16:52.758Z,101311.59
2022-10-06T17:19:22.906Z,101312.56
2022-10-06T17:21:57.450Z,101315.22
2022-10-06T17:24:28.417Z,101320.28
2022-10-06T17:26:59.213Z,101317.34
2022-10-06T17:29:29.062Z,101314.94
2022-10-06T17:32:00.613Z,101321.25
2022-10-06T17:34:32.627Z,101319.59
2022-10-06T17:37:02.961Z,101323.22
2022-10-06T17:39:32.180Z,101324.19
2022-10-06T17:42:00.658Z,101324.91
2022-10-06T17:44:31.379Z,101323.22
2022-10-06T17:47:01.529Z,101320.53
2022-10-06T17:49:34.770Z,101326.19
2022-10-06T17:52:04.053Z,101321.72
2022-10-06T17:54:34.493Z,101322.28
2022-10-06T17:57:02.977Z,101327.59
2022-10-06T17:59:33.885Z,101331.66
2022-10-06T18:02:04.448Z,101329.84
2022-10-06T18:04:34.413Z,101334.19
2022-10-06T18:07:04.100Z,101316.41
2022-10-06T18:09:32.485Z,101318.22
2022-10-06T18:12:01.387Z,101326.19
2022-10-06T18:14:33.653Z,101324.53
2022-10-06T18:17:04.195Z,101322.84
2022-10-06T18:19:34.922Z,101321.00
2022-10-06T18:22:07.064Z,101322.00
2022-10-06T18:24:35.380Z,101318.22
2022-10-06T18:27:05.935Z,101319.75
2022-10-06T18:29:37.064Z,101311.59
2022-10-06T18:37:43.695Z,101317.94
2022-10-06T18:40:14.920Z,101319.47
2022-10-06T18:42:43.544Z,101322.13
2022-10-06T18:45:34.232Z,101323.13
2022-10-06T18:48:23.285Z,101327.72
2022-10-06T18:51:00.641Z,101326.06
2022-10-06T18:53:31.303Z,101320.72
2022-10-06T18:55:59.602Z,101327.06
2022-10-06T18:58:28.358Z,101319.06
2022-10-06T19:00:58.729Z,101328.72
2022-10-06T19:03:28.546Z,101321.31
2022-10-06T19:05:58.945Z,101321.88
2022-10-06T19:08:27.538Z,101324.66
2022-10-06T19:11:13.015Z,101330.97
2022-10-06T19:13:47.111Z,101329.00
2022-10-06T19:16:17.641Z,101328.88
2022-10-06T19:18:46.215Z,101334.06
2022-10-06T19:21:14.752Z,101328.72
2022-10-06T19:23:43.257Z,101340.25
2022-10-06T19:26:12.719Z,101339.53
2022-10-06T19:28:41.661Z,101334.50
2022-10-06T19:31:12.522Z,101329.84
2022-10-06T19:33:43.519Z,101328.19
2022-10-06T19:36:11.808Z,101335.91
2022-10-06T19:38:40.533Z,101336.19
2022-10-06T19:41:26.673Z,101338.97
2022-10-06T19:43:55.123Z,101333.78
2022-10-06T19:46:23.561Z,101338.13
2022-10-06T19:48:55.701Z,101337.31
2022-10-06T19:51:25.227Z,101344.72
2022-10-06T19:53:53.630Z,101334.91
2022-10-06T19:56:25.756Z,101342.50
2022-10-06T19:58:54.032Z,101339.13
2022-10-06T20:01:22.941Z,101342.78
2022-10-06T20:03:51.394Z,101342.06
2022-10-06T20:06:23.306Z,101343.88
2022-10-06T20:08:52.800Z,101337.00
2022-10-06T20:11:22.533Z,101341.63
2022-10-06T20:13:51.511Z,101339.94
2022-10-06T20:16:22.001Z,101341.91
2022-10-06T20:18:50.829Z,101339.25
2022-10-06T20:21:22.422Z,101341.91
2022-10-06T20:23:53.295Z,101338.38
2022-10-06T20:26:24.110Z,101342.19
2022-10-06T20:28:52.512Z,101347.50
2022-10-06T20:31:23.127Z,101341.47
2022-10-06T20:33:51.587Z,101349.19
2022-10-06T20:36:21.793Z,101347.50
2022-10-06T20:39:07.135Z,101348.63
2022-10-06T20:41:35.841Z,101346.78
2022-10-06T20:44:04.778Z,101350.03
2022-10-06T20:46:35.849Z,101358.16
2022-10-06T20:49:06.214Z,101350.03
2022-10-06T20:51:38.202Z,101353.69
2022-10-06T20:54:07.701Z,101354.50
2022-10-06T20:56:36.891Z,101359.16
2022-10-06T20:59:07.707Z,101355.78
2022-10-06T21:01:38.682Z,101353.09
2022-10-06T21:04:09.359Z,101355.06
2022-10-06T21:06:39.990Z,101354.91
2022-10-06T21:09:10.253Z,101363.75
2022-10-06T21:11:39.130Z,101352.13
2022-10-06T21:14:10.867Z,101353.09
2022-10-06T21:16:42.269Z,101349.44
2022-10-06T21:19:13.729Z,101348.63
2022-10-06T21:21:46.242Z,101352.13
2022-10-06T21:24:14.686Z,101359.28
2022-10-06T21:26:43.514Z,101354.09
2022-10-06T21:29:13.028Z,101352.38
2022-10-06T21:31:41.890Z,101350.72
2022-10-06T21:34:10.664Z,101344.56
2022-10-06T21:36:39.940Z,101345.25
2022-10-06T21:39:14.591Z,101352.38
2022-10-06T21:41:43.727Z,101352.38
2022-10-06T21:44:13.822Z,101341.03
2022-10-06T21:46:46.670Z,101343.44
2022-10-06T21:49:16.581Z,101342.59
2022-10-06T21:51:47.182Z,101345.13
2022-10-06T21:54:17.714Z,101345.13
2022-10-06T21:56:47.561Z,101339.06
2022-10-06T21:59:15.658Z,101339.06
2022-10-06T22:01:46.570Z,101342.59
2022-10-06T22:04:16.101Z,101346.09
2022-10-06T22:06:44.844Z,101342.72
2022-10-06T22:09:17.100Z,101343.72
2022-10-06T22:11:46.568Z,101344.69
2022-10-06T22:14:16.704Z,101341.03
2022-10-06T22:16:45.823Z,101339.25
2022-10-06T22:19:16.482Z,101332.06
2022-10-06T22:21:46.786Z,101333.91
2022-10-06T22:24:17.866Z,101334.19
2022-10-06T22:26:47.455Z,101328.00
2022-10-06T22:29:18.482Z,101327.84
2022-10-06T22:31:48.749Z,101322.66
2022-10-06T22:34:18.826Z,101321.69
2022-10-06T22:36:47.607Z,101322.53
2022-10-06T22:39:18.023Z,101320.72
2022-10-06T22:41:46.592Z,101321.53
2022-10-06T22:44:15.177Z,101325.34
2022-10-06T22:46:43.575Z,101323.66
2022-10-06T22:49:12.352Z,101324.34
2022-10-06T22:51:40.751Z,101315.66
2022-10-06T22:54:09.812Z,101321.69
2022-10-06T22:56:39.635Z,101317.22
2022-10-06T22:59:08.249Z,101319.00
2022-10-06T23:01:36.685Z,101319.16
2022-10-06T23:04:05.370Z,101320.84
2022-10-06T23:06:33.844Z,101323.66
2022-10-06T23:09:04.961Z,101317.47
2022-10-06T23:11:33.459Z,101314.69
2022-10-06T23:14:03.658Z,101314.69
2022-10-06T23:16:32.167Z,101311.16
2022-10-06T23:19:01.085Z,101310.34
2022-10-06T23:21:29.514Z,101297.03
2022-10-06T23:24:01.298Z,101301.34
2022-10-06T23:26:29.910Z,101297.84
2022-10-06T23:29:01.169Z,101290.84
2022-10-06T23:31:30.974Z,101296.16
2022-10-06T23:34:00.181Z,101295.31
2022-10-06T23:36:28.528Z,101300.94
2022-10-06T23:38:57.121Z,101292.81
2022-10-06T23:41:25.830Z,101289.16
2022-10-06T23:43:54.099Z,101290.28
2022-10-06T23:46:22.638Z,101285.78
2022-10-06T23:48:52.427Z,101285.78
2022-10-06T23:51:21.138Z,101288.59
2022-10-06T23:53:49.628Z,101275.25
2022-10-06T23:56:19.515Z,101273.59
2022-10-06T23:58:47.915Z,101275.13
